sensor_id;sensor_type;location;lat;lon;timestamp;P1;durP1;ratioP1;P2;durP2;ratioP2
78057;SDS011;67265;52.514;13.292;2023-04-15T00:00:54;27.98;;;13.32;;
78057;SDS011;67265;52.514;13.292;2023-04-15T00:03:21;27.23;;;13.38;;
78057;SDS011;67265;52.514;13.292;2023-04-15T00:05:48;30.23;;;13.48;;
78057;SDS011;67265;52.514;13.292;2023-04-15T00:08:14;28.13;;;13.48;;
78057;SDS011;67265;52.514;13.292;2023-04-15T00:10:41;31.45;;;14.15;;
78057;SDS011;67265;52.514;13.292;2023-04-15T00:13:09;32.25;;;14.40;;
78057;SDS011;67265;52.514;13.292;2023-04-15T00:15:35;32.50;;;13.73;;
78057;SDS011;67265;52.514;13.292;2023-04-15T00:18:02;32.35;;;14.13;;
78057;SDS011;67265;52.514;13.292;2023-04-15T00:20:29;33.38;;;15.50;;
78057;SDS011;67265;52.514;13.292;2023-04-15T00:22:56;30.17;;;14.77;;
78057;SDS011;67265;52.514;13.292;2023-04-15T00:25:24;33.13;;;14.88;;
78057;SDS011;67265;52.514;13.292;2023-04-15T00:27:51;30.30;;;13.02;;
78057;SDS011;67265;52.514;13.292;2023-04-15T00:30:18;33.83;;;15.18;;
78057;SDS011;67265;52.514;13.292;2023-04-15T00:32:44;33.72;;;15.55;;
78057;SDS011;67265;52.514;13.292;2023-04-15T00:35:12;36.92;;;15.55;;
78057;SDS011;67265;52.514;13.292;2023-04-15T00:37:39;33.30;;;14.90;;
78057;SDS011;67265;52.514;13.292;2023-04-15T00:40:05;34.45;;;15.52;;
78057;SDS011;67265;52.514;13.292;2023-04-15T00:42:34;31.73;;;14.48;;
78057;SDS011;67265;52.514;13.292;2023-04-15T00:45:01;31.35;;;14.55;;
78057;SDS011;67265;52.514;13.292;2023-04-15T00:47:27;36.47;;;15.93;;
78057;SDS011;67265;52.514;13.292;2023-04-15T00:49:54;29.25;;;14.38;;
78057;SDS011;67265;52.514;13.292;2023-04-15T00:52:21;33.92;;;14.80;;
78057;SDS011;67265;52.514;13.292;2023-04-15T00:54:48;31.30;;;13.23;;
78057;SDS011;67265;52.514;13.292;2023-04-15T00:57:16;32.90;;;15.90;;
78057;SDS011;67265;52.514;13.292;2023-04-15T00:59:42;35.05;;;15.55;;
78057;SDS011;67265;52.514;13.292;2023-04-15T01:02:09;32.78;;;14.48;;
78057;SDS011;67265;52.514;13.292;2023-04-15T01:04:35;30.25;;;14.80;;
78057;SDS011;67265;52.514;13.292;2023-04-15T01:07:02;35.40;;;15.48;;
78057;SDS011;67265;52.514;13.292;2023-04-15T01:09:29;37.10;;;16.48;;
78057;SDS011;67265;52.514;13.292;2023-04-15T01:11:55;34.70;;;15.45;;
78057;SDS011;67265;52.514;13.292;2023-04-15T01:14:22;37.33;;;16.00;;
78057;SDS011;67265;52.514;13.292;2023-04-15T01:16:49;35.92;;;15.63;;
78057;SDS011;67265;52.514;13.292;2023-04-15T01:19:16;36.53;;;15.68;;
78057;SDS011;67265;52.514;13.292;2023-04-15T01:21:43;38.08;;;17.42;;
78057;SDS011;67265;52.514;13.292;2023-04-15T01:24:10;34.95;;;16.63;;
78057;SDS011;67265;52.514;13.292;2023-04-15T01:26:37;35.90;;;16.15;;
78057;SDS011;67265;52.514;13.292;2023-04-15T01:29:04;34.60;;;16.83;;
78057;SDS011;67265;52.514;13.292;2023-04-15T01:31:31;36.55;;;16.75;;
78057;SDS011;67265;52.514;13.292;2023-04-15T01:33:58;36.47;;;16.50;;
78057;SDS011;67265;52.514;13.292;2023-04-15T01:36:24;36.63;;;16.20;;
78057;SDS011;67265;52.514;13.292;2023-04-15T01:38:51;39.75;;;18.02;;
78057;SDS011;67265;52.514;13.292;2023-04-15T01:41:20;36.33;;;16.38;;
78057;SDS011;67265;52.514;13.292;2023-04-15T01:43:50;40.05;;;17.73;;
78057;SDS011;67265;52.514;13.292;2023-04-15T01:46:17;37.83;;;16.92;;
78057;SDS011;67265;52.514;13.292;2023-04-15T01:48:44;39.03;;;16.58;;
78057;SDS011;67265;52.514;13.292;2023-04-15T01:51:11;38.83;;;15.77;;
78057;SDS011;67265;52.514;13.292;2023-04-15T01:53:37;38.83;;;16.95;;
78057;SDS011;67265;52.514;13.292;2023-04-15T01:56:04;38.58;;;16.80;;
78057;SDS011;67265;52.514;13.292;2023-04-15T01:58:32;38.83;;;16.67;;
78057;SDS011;67265;52.514;13.292;2023-04-15T02:00:58;39.47;;;16.98;;
78057;SDS011;67265;52.514;13.292;2023-04-15T02:03:25;42.00;;;17.27;;
78057;SDS011;67265;52.514;13.292;2023-04-15T02:05:54;40.63;;;17.02;;
78057;SDS011;67265;52.514;13.292;2023-04-15T02:08:21;42.53;;;18.05;;
78057;SDS011;67265;52.514;13.292;2023-04-15T02:10:47;34.95;;;15.77;;
78057;SDS011;67265;52.514;13.292;2023-04-15T02:13:14;43.67;;;20.05;;
78057;SDS011;67265;52.514;13.292;2023-04-15T02:15:48;44.25;;;18.60;;
78057;SDS011;67265;52.514;13.292;2023-04-15T02:18:15;42.75;;;17.00;;
78057;SDS011;67265;52.514;13.292;2023-04-15T02:20:41;43.80;;;17.77;;
78057;SDS011;67265;52.514;13.292;2023-04-15T02:23:12;41.88;;;16.65;;
78057;SDS011;67265;52.514;13.292;2023-04-15T02:25:38;39.65;;;17.63;;
78057;SDS011;67265;52.514;13.292;2023-04-15T02:28:05;44.40;;;15.32;;
78057;SDS011;67265;52.514;13.292;2023-04-15T02:30:32;40.05;;;17.10;;
78057;SDS011;67265;52.514;13.292;2023-04-15T02:32:59;47.75;;;18.67;;
78057;SDS011;67265;52.514;13.292;2023-04-15T02:35:26;48.67;;;19.23;;
78057;SDS011;67265;52.514;13.292;2023-04-15T02:37:53;43.35;;;18.10;;
78057;SDS011;67265;52.514;13.292;2023-04-15T02:40:19;38.63;;;17.85;;
78057;SDS011;67265;52.514;13.292;2023-04-15T02:42:46;39.47;;;16.73;;
78057;SDS011;67265;52.514;13.292;2023-04-15T02:45:12;40.70;;;17.17;;
78057;SDS011;67265;52.514;13.292;2023-04-15T02:47:39;45.85;;;18.45;;
78057;SDS011;67265;52.514;13.292;2023-04-15T02:50:10;37.97;;;18.55;;
78057;SDS011;67265;52.514;13.292;2023-04-15T02:52:38;39.53;;;15.40;;
78057;SDS011;67265;52.514;13.292;2023-04-15T02:55:06;40.50;;;17.02;;
78057;SDS011;67265;52.514;13.292;2023-04-15T02:57:34;44.50;;;17.02;;
78057;SDS011;67265;52.514;13.292;2023-04-15T03:00:06;40.05;;;18.02;;
78057;SDS011;67265;52.514;13.292;2023-04-15T03:02:35;45.88;;;18.45;;
78057;SDS011;67265;52.514;13.292;2023-04-15T03:05:02;41.95;;;19.08;;
78057;SDS011;67265;52.514;13.292;2023-04-15T03:07:29;40.63;;;18.08;;
78057;SDS011;67265;52.514;13.292;2023-04-15T03:09:56;39.80;;;17.20;;
78057;SDS011;67265;52.514;13.292;2023-04-15T03:12:23;38.58;;;17.10;;
78057;SDS011;67265;52.514;13.292;2023-04-15T03:14:49;35.10;;;16.60;;
78057;SDS011;67265;52.514;13.292;2023-04-15T03:17:16;39.60;;;17.48;;
78057;SDS011;67265;52.514;13.292;2023-04-15T03:19:43;39.17;;;16.90;;
78057;SDS011;67265;52.514;13.292;2023-04-15T03:22:09;36.45;;;15.48;;
78057;SDS011;67265;52.514;13.292;2023-04-15T03:24:36;37.10;;;17.13;;
78057;SDS011;67265;52.514;13.292;2023-04-15T03:27:02;37.63;;;17.05;;
78057;SDS011;67265;52.514;13.292;2023-04-15T03:29:29;39.67;;;15.45;;
78057;SDS011;67265;52.514;13.292;2023-04-15T03:31:55;38.03;;;17.63;;
78057;SDS011;67265;52.514;13.292;2023-04-15T03:34:22;36.92;;;16.40;;
78057;SDS011;67265;52.514;13.292;2023-04-15T03:36:48;40.65;;;17.10;;
78057;SDS011;67265;52.514;13.292;2023-04-15T03:39:15;39.08;;;17.48;;
78057;SDS011;67265;52.514;13.292;2023-04-15T03:41:41;32.20;;;15.43;;
78057;SDS011;67265;52.514;13.292;2023-04-15T03:44:08;33.30;;;15.32;;
78057;SDS011;67265;52.514;13.292;2023-04-15T03:46:34;40.17;;;17.75;;
78057;SDS011;67265;52.514;13.292;2023-04-15T03:49:01;38.55;;;16.80;;
78057;SDS011;67265;52.514;13.292;2023-04-15T03:51:28;35.67;;;16.75;;
78057;SDS011;67265;52.514;13.292;2023-04-15T03:53:55;36.53;;;15.68;;
78057;SDS011;67265;52.514;13.292;2023-04-15T03:56:22;43.85;;;19.13;;
78057;SDS011;67265;52.514;13.292;2023-04-15T03:58:48;42.70;;;15.77;;
78057;SDS011;67265;52.514;13.292;2023-04-15T04:01:15;34.70;;;16.63;;
78057;SDS011;67265;52.514;13.292;2023-04-15T04:03:41;35.30;;;16.90;;
78057;SDS011;67265;52.514;13.292;2023-04-15T04:06:08;36.83;;;16.10;;
78057;SDS011;67265;52.514;13.292;2023-04-15T04:08:37;37.08;;;16.90;;
78057;SDS011;67265;52.514;13.292;2023-04-15T04:11:04;37.63;;;16.83;;
78057;SDS011;67265;52.514;13.292;2023-04-15T04:13:30;39.88;;;17.95;;
78057;SDS011;67265;52.514;13.292;2023-04-15T04:15:57;32.78;;;15.75;;
78057;SDS011;67265;52.514;13.292;2023-04-15T04:18:23;36.38;;;17.08;;
78057;SDS011;67265;52.514;13.292;2023-04-15T04:20:50;35.45;;;16.75;;
78057;SDS011;67265;52.514;13.292;2023-04-15T04:23:16;34.35;;;15.80;;
78057;SDS011;67265;52.514;13.292;2023-04-15T04:25:43;34.13;;;15.77;;
78057;SDS011;67265;52.514;13.292;2023-04-15T04:28:09;34.08;;;16.10;;
78057;SDS011;67265;52.514;13.292;2023-04-15T04:30:36;32.72;;;16.20;;
78057;SDS011;67265;52.514;13.292;2023-04-15T04:33:03;34.92;;;15.15;;
78057;SDS011;67265;52.514;13.292;2023-04-15T04:35:29;31.85;;;15.85;;
78057;SDS011;67265;52.514;13.292;2023-04-15T04:37:58;32.15;;;15.50;;
78057;SDS011;67265;52.514;13.292;2023-04-15T04:40:25;29.65;;;14.75;;
78057;SDS011;67265;52.514;13.292;2023-04-15T04:42:52;29.45;;;13.68;;
78057;SDS011;67265;52.514;13.292;2023-04-15T04:45:19;32.30;;;14.93;;
78057;SDS011;67265;52.514;13.292;2023-04-15T04:47:46;31.75;;;16.33;;
78057;SDS011;67265;52.514;13.292;2023-04-15T04:50:13;35.53;;;15.70;;
78057;SDS011;67265;52.514;13.292;2023-04-15T04:52:39;30.90;;;14.88;;
78057;SDS011;67265;52.514;13.292;2023-04-15T04:55:06;30.73;;;15.07;;
78057;SDS011;67265;52.514;13.292;2023-04-15T04:57:33;27.83;;;14.50;;
78057;SDS011;67265;52.514;13.292;2023-04-15T05:00:05;30.95;;;13.52;;
78057;SDS011;67265;52.514;13.292;2023-04-15T05:02:33;29.20;;;13.60;;
78057;SDS011;67265;52.514;13.292;2023-04-15T05:05:00;31.85;;;16.00;;
78057;SDS011;67265;52.514;13.292;2023-04-15T05:07:27;31.70;;;15.02;;
78057;SDS011;67265;52.514;13.292;2023-04-15T05:09:53;27.95;;;16.13;;
78057;SDS011;67265;52.514;13.292;2023-04-15T05:12:20;31.15;;;15.70;;
78057;SDS011;67265;52.514;13.292;2023-04-15T05:14:46;30.02;;;15.18;;
78057;SDS011;67265;52.514;13.292;2023-04-15T05:17:13;29.23;;;12.70;;
78057;SDS011;67265;52.514;13.292;2023-04-15T05:19:39;31.52;;;14.00;;
78057;SDS011;67265;52.514;13.292;2023-04-15T05:22:06;29.05;;;15.25;;
78057;SDS011;67265;52.514;13.292;2023-04-15T05:24:32;29.35;;;14.68;;
78057;SDS011;67265;52.514;13.292;2023-04-15T05:26:59;27.95;;;15.20;;
78057;SDS011;67265;52.514;13.292;2023-04-15T05:29:27;26.83;;;14.30;;
78057;SDS011;67265;52.514;13.292;2023-04-15T05:31:53;25.98;;;14.05;;
78057;SDS011;67265;52.514;13.292;2023-04-15T05:34:20;25.38;;;13.60;;
78057;SDS011;67265;52.514;13.292;2023-04-15T05:36:46;26.98;;;13.70;;
78057;SDS011;67265;52.514;13.292;2023-04-15T05:39:13;23.92;;;12.23;;
78057;SDS011;67265;52.514;13.292;2023-04-15T05:41:39;26.45;;;13.35;;
78057;SDS011;67265;52.514;13.292;2023-04-15T05:44:06;24.48;;;12.30;;
78057;SDS011;67265;52.514;13.292;2023-04-15T05:46:32;22.42;;;13.10;;
78057;SDS011;67265;52.514;13.292;2023-04-15T05:48:59;25.05;;;12.60;;
78057;SDS011;67265;52.514;13.292;2023-04-15T05:51:26;25.50;;;12.93;;
78057;SDS011;67265;52.514;13.292;2023-04-15T05:53:52;24.73;;;12.68;;
78057;SDS011;67265;52.514;13.292;2023-04-15T05:56:19;20.45;;;10.30;;
78057;SDS011;67265;52.514;13.292;2023-04-15T05:58:46;24.77;;;13.50;;
78057;SDS011;67265;52.514;13.292;2023-04-15T06:01:12;24.77;;;12.70;;
78057;SDS011;67265;52.514;13.292;2023-04-15T06:03:38;23.35;;;11.32;;
78057;SDS011;67265;52.514;13.292;2023-04-15T06:06:05;21.25;;;11.10;;
78057;SDS011;67265;52.514;13.292;2023-04-15T06:08:32;24.23;;;13.15;;
78057;SDS011;67265;52.514;13.292;2023-04-15T06:10:59;22.05;;;12.38;;
78057;SDS011;67265;52.514;13.292;2023-04-15T06:13:26;21.42;;;12.18;;
78057;SDS011;67265;52.514;13.292;2023-04-15T06:15:52;19.00;;;11.35;;
78057;SDS011;67265;52.514;13.292;2023-04-15T06:18:19;20.00;;;10.57;;
78057;SDS011;67265;52.514;13.292;2023-04-15T06:20:45;19.63;;;11.35;;
78057;SDS011;67265;52.514;13.292;2023-04-15T06:23:12;19.67;;;11.38;;
78057;SDS011;67265;52.514;13.292;2023-04-15T06:25:38;18.33;;;11.43;;
78057;SDS011;67265;52.514;13.292;2023-04-15T06:28:05;19.58;;;11.45;;
78057;SDS011;67265;52.514;13.292;2023-04-15T06:30:31;18.15;;;9.48;;
78057;SDS011;67265;52.514;13.292;2023-04-15T06:32:58;19.73;;;10.63;;
78057;SDS011;67265;52.514;13.292;2023-04-15T06:35:25;17.00;;;10.43;;
78057;SDS011;67265;52.514;13.292;2023-04-15T06:37:52;19.52;;;9.30;;
78057;SDS011;67265;52.514;13.292;2023-04-15T06:40:19;16.75;;;8.85;;
78057;SDS011;67265;52.514;13.292;2023-04-15T06:42:45;17.08;;;10.35;;
78057;SDS011;67265;52.514;13.292;2023-04-15T06:45:12;16.42;;;9.65;;
78057;SDS011;67265;52.514;13.292;2023-04-15T06:47:38;17.70;;;9.95;;
78057;SDS011;67265;52.514;13.292;2023-04-15T06:50:06;15.02;;;9.23;;
78057;SDS011;67265;52.514;13.292;2023-04-15T06:52:32;14.60;;;9.30;;
78057;SDS011;67265;52.514;13.292;2023-04-15T06:54:59;14.23;;;8.82;;
78057;SDS011;67265;52.514;13.292;2023-04-15T06:57:27;15.38;;;8.30;;
78057;SDS011;67265;52.514;13.292;2023-04-15T06:59:54;14.40;;;9.52;;
78057;SDS011;67265;52.514;13.292;2023-04-15T07:02:21;15.07;;;8.25;;
78057;SDS011;67265;52.514;13.292;2023-04-15T07:04:48;13.73;;;8.70;;
78057;SDS011;67265;52.514;13.292;2023-04-15T07:07:14;12.32;;;8.70;;
78057;SDS011;67265;52.514;13.292;2023-04-15T07:09:42;13.75;;;8.65;;
78057;SDS011;67265;52.514;13.292;2023-04-15T07:12:09;14.02;;;8.20;;
78057;SDS011;67265;52.514;13.292;2023-04-15T07:14:36;10.52;;;8.02;;
78057;SDS011;67265;52.514;13.292;2023-04-15T07:17:03;12.68;;;7.90;;
78057;SDS011;67265;52.514;13.292;2023-04-15T07:19:29;10.50;;;7.50;;
78057;SDS011;67265;52.514;13.292;2023-04-15T07:21:56;10.63;;;6.13;;
78057;SDS011;67265;52.514;13.292;2023-04-15T07:24:22;9.45;;;6.22;;
78057;SDS011;67265;52.514;13.292;2023-04-15T07:26:52;9.27;;;6.10;;
78057;SDS011;67265;52.514;13.292;2023-04-15T07:29:22;9.70;;;7.25;;
78057;SDS011;67265;52.514;13.292;2023-04-15T07:31:49;11.20;;;8.35;;
78057;SDS011;67265;52.514;13.292;2023-04-15T07:34:15;11.45;;;7.82;;
78057;SDS011;67265;52.514;13.292;2023-04-15T07:36:42;10.43;;;7.50;;
78057;SDS011;67265;52.514;13.292;2023-04-15T07:39:08;11.60;;;7.30;;
78057;SDS011;67265;52.514;13.292;2023-04-15T07:41:35;11.75;;;7.43;;
78057;SDS011;67265;52.514;13.292;2023-04-15T07:44:02;12.30;;;6.50;;
78057;SDS011;67265;52.514;13.292;2023-04-15T07:46:29;11.45;;;7.70;;
78057;SDS011;67265;52.514;13.292;2023-04-15T07:48:55;16.45;;;8.43;;
78057;SDS011;67265;52.514;13.292;2023-04-15T07:51:22;12.10;;;7.95;;
78057;SDS011;67265;52.514;13.292;2023-04-15T07:53:49;12.50;;;7.75;;
78057;SDS011;67265;52.514;13.292;2023-04-15T07:56:15;13.45;;;8.07;;
78057;SDS011;67265;52.514;13.292;2023-04-15T07:58:42;13.00;;;7.93;;
78057;SDS011;67265;52.514;13.292;2023-04-15T08:01:08;13.57;;;8.30;;
78057;SDS011;67265;52.514;13.292;2023-04-15T08:03:35;13.80;;;8.60;;
78057;SDS011;67265;52.514;13.292;2023-04-15T08:06:02;13.80;;;8.50;;
78057;SDS011;67265;52.514;13.292;2023-04-15T08:08:29;13.85;;;8.77;;
78057;SDS011;67265;52.514;13.292;2023-04-15T08:10:55;11.13;;;8.15;;
78057;SDS011;67265;52.514;13.292;2023-04-15T08:13:23;12.05;;;8.38;;
78057;SDS011;67265;52.514;13.292;2023-04-15T08:15:55;12.80;;;8.25;;
78057;SDS011;67265;52.514;13.292;2023-04-15T08:18:47;15.45;;;7.65;;
78057;SDS011;67265;52.514;13.292;2023-04-15T08:21:15;11.63;;;7.75;;
78057;SDS011;67265;52.514;13.292;2023-04-15T08:23:43;10.05;;;6.93;;
78057;SDS011;67265;52.514;13.292;2023-04-15T08:26:10;13.75;;;8.13;;
78057;SDS011;67265;52.514;13.292;2023-04-15T08:28:38;11.55;;;7.45;;
78057;SDS011;67265;52.514;13.292;2023-04-15T08:31:05;10.93;;;7.65;;
78057;SDS011;67265;52.514;13.292;2023-04-15T08:33:32;14.57;;;8.75;;
78057;SDS011;67265;52.514;13.292;2023-04-15T08:35:59;13.57;;;9.10;;
78057;SDS011;67265;52.514;13.292;2023-04-15T08:38:25;13.60;;;8.13;;
78057;SDS011;67265;52.514;13.292;2023-04-15T08:40:52;14.30;;;8.70;;
78057;SDS011;67265;52.514;13.292;2023-04-15T08:45:52;14.75;;;8.07;;
78057;SDS011;67265;52.514;13.292;2023-04-15T08:48:18;15.93;;;9.60;;
78057;SDS011;67265;52.514;13.292;2023-04-15T08:50:46;15.88;;;9.45;;
78057;SDS011;67265;52.514;13.292;2023-04-15T08:53:13;13.80;;;9.95;;
78057;SDS011;67265;52.514;13.292;2023-04-15T08:55:44;15.70;;;10.10;;
78057;SDS011;67265;52.514;13.292;2023-04-15T08:58:12;15.52;;;9.55;;
78057;SDS011;67265;52.514;13.292;2023-04-15T09:00:39;13.73;;;10.02;;
78057;SDS011;67265;52.514;13.292;2023-04-15T09:03:07;17.65;;;10.07;;
78057;SDS011;67265;52.514;13.292;2023-04-15T09:05:35;15.40;;;9.82;;
78057;SDS011;67265;52.514;13.292;2023-04-15T09:08:02;15.77;;;9.88;;
78057;SDS011;67265;52.514;13.292;2023-04-15T09:10:29;13.45;;;9.25;;
78057;SDS011;67265;52.514;13.292;2023-04-15T09:12:56;15.60;;;9.68;;
78057;SDS011;67265;52.514;13.292;2023-04-15T09:15:23;14.95;;;10.18;;
78057;SDS011;67265;52.514;13.292;2023-04-15T09:17:50;15.00;;;9.68;;
78057;SDS011;67265;52.514;13.292;2023-04-15T09:20:18;14.23;;;10.32;;
78057;SDS011;67265;52.514;13.292;2023-04-15T09:22:45;12.75;;;7.55;;
78057;SDS011;67265;52.514;13.292;2023-04-15T09:30:16;14.70;;;9.48;;
78057;SDS011;67265;52.514;13.292;2023-04-15T09:35:19;14.27;;;9.20;;
78057;SDS011;67265;52.514;13.292;2023-04-15T09:37:47;13.85;;;9.32;;
78057;SDS011;67265;52.514;13.292;2023-04-15T09:40:14;15.13;;;9.65;;
78057;SDS011;67265;52.514;13.292;2023-04-15T09:42:56;17.73;;;10.82;;
78057;SDS011;67265;52.514;13.292;2023-04-15T09:45:23;12.55;;;8.90;;
78057;SDS011;67265;52.514;13.292;2023-04-15T09:47:55;13.85;;;9.13;;
78057;SDS011;67265;52.514;13.292;2023-04-15T09:50:27;12.30;;;8.20;;
78057;SDS011;67265;52.514;13.292;2023-04-15T09:52:57;13.45;;;9.18;;
78057;SDS011;67265;52.514;13.292;2023-04-15T09:55:24;14.38;;;8.82;;
78057;SDS011;67265;52.514;13.292;2023-04-15T09:57:51;13.70;;;8.35;;
78057;SDS011;67265;52.514;13.292;2023-04-15T10:00:17;13.63;;;9.65;;
78057;SDS011;67265;52.514;13.292;2023-04-15T10:02:44;15.38;;;10.02;;
78057;SDS011;67265;52.514;13.292;2023-04-15T10:05:13;15.77;;;9.70;;
78057;SDS011;67265;52.514;13.292;2023-04-15T10:07:40;16.30;;;10.55;;
78057;SDS011;67265;52.514;13.292;2023-04-15T10:10:08;13.75;;;9.68;;
78057;SDS011;67265;52.514;13.292;2023-04-15T10:12:36;14.60;;;9.48;;
78057;SDS011;67265;52.514;13.292;2023-04-15T10:15:04;13.95;;;9.70;;
78057;SDS011;67265;52.514;13.292;2023-04-15T10:17:32;16.92;;;10.73;;
78057;SDS011;67265;52.514;13.292;2023-04-15T10:20:01;14.30;;;9.98;;
78057;SDS011;67265;52.514;13.292;2023-04-15T10:22:30;16.60;;;10.35;;
78057;SDS011;67265;52.514;13.292;2023-04-15T10:24:57;14.77;;;9.43;;
78057;SDS011;67265;52.514;13.292;2023-04-15T10:27:25;15.35;;;10.85;;
78057;SDS011;67265;52.514;13.292;2023-04-15T10:29:53;14.15;;;10.48;;
78057;SDS011;67265;52.514;13.292;2023-04-15T10:32:19;15.30;;;9.45;;
78057;SDS011;67265;52.514;13.292;2023-04-15T10:34:47;14.85;;;10.73;;
78057;SDS011;67265;52.514;13.292;2023-04-15T10:37:19;15.68;;;9.93;;
78057;SDS011;67265;52.514;13.292;2023-04-15T10:39:58;16.65;;;10.20;;
78057;SDS011;67265;52.514;13.292;2023-04-15T10:42:26;27.95;;;16.48;;
78057;SDS011;67265;52.514;13.292;2023-04-15T10:44:59;34.13;;;18.33;;
78057;SDS011;67265;52.514;13.292;2023-04-15T10:47:25;23.42;;;14.40;;
78057;SDS011;67265;52.514;13.292;2023-04-15T10:49:58;18.85;;;15.02;;
78057;SDS011;67265;52.514;13.292;2023-04-15T10:52:26;18.45;;;12.73;;
78057;SDS011;67265;52.514;13.292;2023-04-15T10:55:11;16.75;;;11.02;;
78057;SDS011;67265;52.514;13.292;2023-04-15T10:57:38;14.68;;;10.43;;
78057;SDS011;67265;52.514;13.292;2023-04-15T11:00:15;14.00;;;10.23;;
78057;SDS011;67265;52.514;13.292;2023-04-15T11:02:44;15.25;;;10.45;;
78057;SDS011;67265;52.514;13.292;2023-04-15T11:08:17;18.42;;;11.57;;
78057;SDS011;67265;52.514;13.292;2023-04-15T11:20:40;17.23;;;10.30;;
78057;SDS011;67265;52.514;13.292;2023-04-15T11:23:17;19.00;;;10.88;;
78057;SDS011;67265;52.514;13.292;2023-04-15T11:25:44;15.38;;;9.90;;
78057;SDS011;67265;52.514;13.292;2023-04-15T11:28:11;16.67;;;11.13;;
78057;SDS011;67265;52.514;13.292;2023-04-15T11:30:39;16.08;;;11.13;;
78057;SDS011;67265;52.514;13.292;2023-04-15T11:33:06;17.73;;;10.95;;
78057;SDS011;67265;52.514;13.292;2023-04-15T11:35:34;19.42;;;11.57;;
78057;SDS011;67265;52.514;13.292;2023-04-15T11:38:05;19.35;;;11.25;;
78057;SDS011;67265;52.514;13.292;2023-04-15T11:40:37;17.77;;;11.20;;
78057;SDS011;67265;52.514;13.292;2023-04-15T11:45:50;20.27;;;10.02;;
78057;SDS011;67265;52.514;13.292;2023-04-15T11:48:26;17.70;;;11.10;;
78057;SDS011;67265;52.514;13.292;2023-04-15T11:50:55;19.42;;;11.60;;
78057;SDS011;67265;52.514;13.292;2023-04-15T11:53:23;18.08;;;11.73;;
78057;SDS011;67265;52.514;13.292;2023-04-15T11:55:51;19.30;;;12.13;;
78057;SDS011;67265;52.514;13.292;2023-04-15T11:58:19;19.00;;;11.40;;
78057;SDS011;67265;52.514;13.292;2023-04-15T12:03:46;18.77;;;11.77;;
78057;SDS011;67265;52.514;13.292;2023-04-15T12:06:15;21.23;;;12.05;;
78057;SDS011;67265;52.514;13.292;2023-04-15T12:16:56;19.90;;;11.57;;
78057;SDS011;67265;52.514;13.292;2023-04-15T12:19:27;17.38;;;10.02;;
78057;SDS011;67265;52.514;13.292;2023-04-15T12:22:00;19.23;;;12.00;;
78057;SDS011;67265;52.514;13.292;2023-04-15T12:24:32;21.55;;;12.43;;
78057;SDS011;67265;52.514;13.292;2023-04-15T12:27:00;18.40;;;10.73;;
78057;SDS011;67265;52.514;13.292;2023-04-15T12:29:31;14.98;;;10.75;;
78057;SDS011;67265;52.514;13.292;2023-04-15T12:32:04;16.55;;;10.45;;
78057;SDS011;67265;52.514;13.292;2023-04-15T12:34:38;15.13;;;10.25;;
78057;SDS011;67265;52.514;13.292;2023-04-15T12:37:06;15.15;;;10.10;;
78057;SDS011;67265;52.514;13.292;2023-04-15T12:39:37;18.52;;;11.30;;
78057;SDS011;67265;52.514;13.292;2023-04-15T12:42:05;17.33;;;10.25;;
78057;SDS011;67265;52.514;13.292;2023-04-15T12:44:32;15.20;;;10.20;;
78057;SDS011;67265;52.514;13.292;2023-04-15T12:47:00;16.52;;;10.63;;
78057;SDS011;67265;52.514;13.292;2023-04-15T12:49:28;15.15;;;8.48;;
78057;SDS011;67265;52.514;13.292;2023-04-15T12:51:58;16.80;;;10.00;;
78057;SDS011;67265;52.514;13.292;2023-04-15T12:54:26;16.02;;;9.15;;
78057;SDS011;67265;52.514;13.292;2023-04-15T12:56:53;15.98;;;9.20;;
78057;SDS011;67265;52.514;13.292;2023-04-15T12:59:20;15.13;;;9.10;;
78057;SDS011;67265;52.514;13.292;2023-04-15T13:01:49;12.82;;;8.73;;
78057;SDS011;67265;52.514;13.292;2023-04-15T13:04:16;15.13;;;9.43;;
78057;SDS011;67265;52.514;13.292;2023-04-15T13:06:43;14.02;;;9.70;;
78057;SDS011;67265;52.514;13.292;2023-04-15T13:09:09;15.90;;;9.95;;
78057;SDS011;67265;52.514;13.292;2023-04-15T13:11:36;15.90;;;8.57;;
78057;SDS011;67265;52.514;13.292;2023-04-15T13:14:03;15.52;;;10.13;;
78057;SDS011;67265;52.514;13.292;2023-04-15T13:16:31;15.85;;;9.63;;
78057;SDS011;67265;52.514;13.292;2023-04-15T13:18:58;15.23;;;9.75;;
78057;SDS011;67265;52.514;13.292;2023-04-15T13:21:25;18.98;;;10.13;;
78057;SDS011;67265;52.514;13.292;2023-04-15T13:23:52;15.75;;;9.68;;
78057;SDS011;67265;52.514;13.292;2023-04-15T13:26:21;16.45;;;10.73;;
78057;SDS011;67265;52.514;13.292;2023-04-15T13:28:48;13.98;;;10.20;;
78057;SDS011;67265;52.514;13.292;2023-04-15T13:31:14;14.60;;;9.35;;
78057;SDS011;67265;52.514;13.292;2023-04-15T13:33:41;16.25;;;9.90;;
78057;SDS011;67265;52.514;13.292;2023-04-15T13:36:08;15.70;;;9.68;;
78057;SDS011;67265;52.514;13.292;2023-04-15T13:38:34;15.45;;;9.40;;
78057;SDS011;67265;52.514;13.292;2023-04-15T13:41:01;15.45;;;8.93;;
78057;SDS011;67265;52.514;13.292;2023-04-15T13:43:27;13.45;;;8.63;;
78057;SDS011;67265;52.514;13.292;2023-04-15T13:45:54;13.27;;;7.65;;
78057;SDS011;67265;52.514;13.292;2023-04-15T13:48:21;12.95;;;7.72;;
78057;SDS011;67265;52.514;13.292;2023-04-15T13:50:47;11.38;;;7.50;;
78057;SDS011;67265;52.514;13.292;2023-04-15T13:53:15;12.90;;;8.48;;
78057;SDS011;67265;52.514;13.292;2023-04-15T13:55:41;13.32;;;9.02;;
78057;SDS011;67265;52.514;13.292;2023-04-15T13:58:08;12.65;;;7.35;;
78057;SDS011;67265;52.514;13.292;2023-04-15T14:00:35;14.27;;;9.27;;
78057;SDS011;67265;52.514;13.292;2023-04-15T14:03:02;13.23;;;8.50;;
78057;SDS011;67265;52.514;13.292;2023-04-15T14:05:29;19.67;;;10.07;;
78057;SDS011;67265;52.514;13.292;2023-04-15T14:07:55;13.32;;;9.23;;
78057;SDS011;67265;52.514;13.292;2023-04-15T14:10:22;13.85;;;9.15;;
78057;SDS011;67265;52.514;13.292;2023-04-15T14:12:48;14.80;;;9.57;;
78057;SDS011;67265;52.514;13.292;2023-04-15T14:15:15;15.70;;;9.73;;
78057;SDS011;67265;52.514;13.292;2023-04-15T14:17:41;15.68;;;9.73;;
78057;SDS011;67265;52.514;13.292;2023-04-15T14:20:08;14.20;;;7.88;;
78057;SDS011;67265;52.514;13.292;2023-04-15T14:22:35;15.00;;;9.43;;
78057;SDS011;67265;52.514;13.292;2023-04-15T14:25:02;16.05;;;9.77;;
78057;SDS011;67265;52.514;13.292;2023-04-15T14:27:29;15.27;;;10.30;;
78057;SDS011;67265;52.514;13.292;2023-04-15T14:29:55;15.07;;;10.10;;
78057;SDS011;67265;52.514;13.292;2023-04-15T14:32:24;15.90;;;9.30;;
78057;SDS011;67265;52.514;13.292;2023-04-15T14:34:51;15.77;;;10.18;;
78057;SDS011;67265;52.514;13.292;2023-04-15T14:37:17;14.15;;;8.35;;
78057;SDS011;67265;52.514;13.292;2023-04-15T14:39:44;16.48;;;9.75;;
78057;SDS011;67265;52.514;13.292;2023-04-15T14:42:10;19.52;;;10.88;;
78057;SDS011;67265;52.514;13.292;2023-04-15T14:44:37;17.23;;;10.15;;
78057;SDS011;67265;52.514;13.292;2023-04-15T14:47:04;14.98;;;9.88;;
78057;SDS011;67265;52.514;13.292;2023-04-15T14:49:31;13.87;;;9.07;;
78057;SDS011;67265;52.514;13.292;2023-04-15T14:51:57;16.23;;;10.05;;